Time;durP1;ratioP1;P1;durP2;ratioP2;P2;SDS_P1;SDS_P2;PMS_P1;PMS_P2;Temp;Humidity;BMP_temperature;BMP_pressure;BME280_temperature;BME280_humidity;BME280_pressure;Samples;Min_cycle;Max_cycle;Signal;HPM_P1;HPM_P2
2023/04/16 02:14:15;;;;;;;39.77;37.10;;;9.20;99.90;;;;;;5850863;23;20470;-72
2023/04/16 02:16:42;;;;;;;40.43;37.93;;;9.10;99.90;;;;;;4912604;29;20458;-72
2023/04/16 02:19:08;;;;;;;41.13;38.37;;;9.20;99.90;;;;;;4911907;29;20810;-73
2023/04/16 02:21:35;;;;;;;42.60;39.90;;;9.20;99.90;;;;;;4912116;29;20453;-73
2023/04/16 02:24:02;;;;;;;41.90;39.20;;;9.20;99.90;;;;;;4905337;29;20499;-72
2023/04/16 02:26:29;;;;;;;41.00;38.47;;;9.20;99.90;;;;;;4901733;29;20454;-72
2023/04/16 02:28:55;;;;;;;40.20;37.60;;;9.20;99.90;;;;;;4905891;29;20503;-72
2023/04/16 02:31:23;;;;;;;42.60;39.90;;;9.30;99.90;;;;;;4905280;29;20459;-72
2023/04/16 02:33:50;;;;;;;41.00;38.30;;;9.30;99.90;;;;;;4905118;29;20441;-73
2023/04/16 02:36:16;;;;;;;41.17;38.37;;;9.20;99.90;;;;;;4906222;29;20462;-72
2023/04/16 02:38:43;;;;;;;42.30;39.43;;;9.30;99.90;;;;;;4905196;29;20463;-73
2023/04/16 02:41:10;;;;;;;41.40;38.50;;;9.30;99.90;;;;;;4905025;29;20442;-73
2023/04/16 02:43:37;;;;;;;41.83;39.00;;;9.20;99.90;;;;;;4906120;29;20482;-72
2023/04/16 02:46:03;;;;;;;41.00;38.20;;;9.20;99.90;;;;;;4904674;29;20458;-73
2023/04/16 02:48:31;;;;;;;41.30;38.50;;;9.20;99.90;;;;;;4904539;29;20939;-71
2023/04/16 02:50:58;;;;;;;41.23;38.30;;;9.20;99.90;;;;;;4912953;29;20454;-73
2023/04/16 02:53:25;;;;;;;42.20;39.30;;;9.20;99.90;;;;;;4915855;29;20454;-73
2023/04/16 02:55:52;;;;;;;42.20;39.20;;;9.20;99.90;;;;;;4907526;29;20466;-72
2023/04/16 02:58:19;;;;;;;41.27;38.43;;;9.20;99.90;;;;;;4905680;29;20454;-72
2023/04/16 03:00:46;;;;;;;41.60;38.70;;;9.20;99.90;;;;;;4904571;29;20460;-72
2023/04/16 03:03:13;;;;;;;43.73;40.63;;;9.10;99.90;;;;;;4904810;29;20489;-72
2023/04/16 03:05:41;;;;;;;42.40;39.50;;;9.20;99.90;;;;;;4905699;29;20434;-73
2023/04/16 03:08:08;;;;;;;42.50;39.60;;;9.20;99.90;;;;;;4904606;29;20454;-71
2023/04/16 03:10:35;;;;;;;41.10;38.20;;;9.20;99.90;;;;;;4904082;29;20449;-72
2023/04/16 03:13:02;;;;;;;39.97;37.40;;;9.20;99.90;;;;;;4905511;29;20490;-72
2023/04/16 03:15:28;;;;;;;39.40;36.63;;;9.20;99.90;;;;;;4904778;29;20987;-72
2023/04/16 03:17:55;;;;;;;41.67;38.63;;;9.20;99.90;;;;;;4904277;29;20812;-72
2023/04/16 03:20:22;;;;;;;42.67;39.73;;;9.20;99.90;;;;;;4907337;29;20453;-72
2023/04/16 03:22:51;;;;;;;43.30;40.23;;;9.20;99.90;;;;;;4904728;29;20478;-71
2023/04/16 03:25:17;;;;;;;42.90;39.40;;;9.20;99.90;;;;;;4905424;29;21072;-71
2023/04/16 03:27:44;;;;;;;42.20;39.23;;;9.20;99.90;;;;;;4903997;29;20456;-71
2023/04/16 03:30:12;;;;;;;41.97;39.00;;;9.20;99.90;;;;;;4904482;29;20972;-72
2023/04/16 03:32:39;;;;;;;42.47;39.17;;;9.20;99.90;;;;;;4905396;29;20461;-72
2023/04/16 03:35:07;;;;;;;42.50;39.40;;;9.20;99.90;;;;;;4903522;29;20451;-72
2023/04/16 03:37:34;;;;;;;40.67;37.73;;;9.20;99.90;;;;;;4903634;29;20451;-72
2023/04/16 03:40:02;;;;;;;41.13;38.23;;;9.10;99.90;;;;;;4904934;29;20450;-72
2023/04/16 03:42:29;;;;;;;42.40;39.30;;;9.20;99.90;;;;;;4904267;29;20513;-72
2023/04/16 03:44:56;;;;;;;42.20;39.07;;;9.10;99.90;;;;;;4903668;29;21293;-72
2023/04/16 03:47:22;;;;;;;40.17;37.30;;;9.10;99.90;;;;;;4903342;29;20543;-72
2023/04/16 03:49:49;;;;;;;40.13;37.03;;;9.10;99.90;;;;;;4903954;29;20453;-72
2023/04/16 03:52:16;;;;;;;42.73;39.63;;;9.10;99.90;;;;;;4904706;29;20954;-72
2023/04/16 03:54:43;;;;;;;44.20;40.90;;;9.10;99.90;;;;;;4903325;29;20984;-72
2023/04/16 03:57:11;;;;;;;40.60;37.50;;;9.10;99.90;;;;;;4904178;29;20815;-73
2023/04/16 03:59:37;;;;;;;42.80;39.60;;;9.20;99.90;;;;;;4904599;29;20452;-74
2023/04/16 04:02:04;;;;;;;41.97;38.83;;;9.10;99.90;;;;;;4903154;29;20456;-73
2023/04/16 04:04:31;;;;;;;43.13;39.90;;;9.20;99.90;;;;;;4903716;29;20483;-73
2023/04/16 04:06:57;;;;;;;41.50;38.40;;;9.20;99.90;;;;;;4904998;29;20452;-73
2023/04/16 04:09:24;;;;;;;41.13;38.13;;;9.10;99.90;;;;;;4903181;29;20454;-72
2023/04/16 04:11:51;;;;;;;44.00;40.77;;;9.10;99.90;;;;;;4903685;29;20707;-73
2023/04/16 04:14:19;;;;;;;42.70;39.60;;;9.10;99.90;;;;;;4904445;29;20483;-72
2023/04/16 04:16:45;;;;;;;43.20;39.93;;;9.10;99.90;;;;;;4894804;29;20461;-72
2023/04/16 04:19:12;;;;;;;42.57;39.27;;;9.10;99.90;;;;;;4894930;29;20460;-72
2023/04/16 04:21:39;;;;;;;42.70;39.70;;;9.20;99.90;;;;;;4901754;29;20451;-72
2023/04/16 04:24:05;;;;;;;43.37;40.27;;;9.20;99.90;;;;;;4903012;29;20479;-73
2023/04/16 04:26:32;;;;;;;45.70;42.30;;;9.10;99.90;;;;;;4902929;29;20454;-72
2023/04/16 04:28:59;;;;;;;42.77;39.63;;;9.10;99.90;;;;;;4904562;29;20447;-72
2023/04/16 04:31:27;;;;;;;44.87;41.57;;;9.10;99.90;;;;;;4903897;29;20470;-71
2023/04/16 04:33:53;;;;;;;42.00;38.87;;;9.10;99.90;;;;;;4903657;29;20447;-72
2023/04/16 04:36:20;;;;;;;43.03;39.83;;;9.10;99.90;;;;;;4904078;29;20983;-72
2023/04/16 04:38:47;;;;;;;45.20;41.80;;;9.10;99.90;;;;;;4902982;29;20450;-71
2023/04/16 04:41:13;;;;;;;43.30;39.77;;;9.10;99.90;;;;;;4903004;29;20459;-72
2023/04/16 04:43:40;;;;;;;43.83;40.80;;;9.10;99.90;;;;;;4904281;29;20808;-72
2023/04/16 04:46:07;;;;;;;43.00;39.80;;;9.00;99.90;;;;;;4902880;29;20554;-72
2023/04/16 04:48:36;;;;;;;43.50;40.23;;;9.00;99.90;;;;;;4902308;29;20836;-73
2023/04/16 04:51:03;;;;;;;42.37;39.27;;;9.00;99.90;;;;;;4901374;29;20444;-73
2023/04/16 04:53:30;;;;;;;41.30;38.33;;;9.00;99.90;;;;;;4903042;29;20474;-72
2023/04/16 04:55:57;;;;;;;41.70;38.60;;;9.10;99.90;;;;;;4904193;29;20454;-74
2023/04/16 04:58:23;;;;;;;41.87;38.67;;;9.00;99.90;;;;;;4902195;29;20554;-73
2023/04/16 05:00:50;;;;;;;43.33;40.17;;;9.00;99.90;;;;;;4902595;29;20458;-72
2023/04/16 05:03:20;;;;;;;41.43;38.37;;;9.10;99.90;;;;;;4903475;29;20499;-73
2023/04/16 05:05:48;;;;;;;42.30;39.33;;;9.10;99.90;;;;;;4902692;29;20867;-72
2023/04/16 05:08:15;;;;;;;42.27;39.20;;;9.10;99.90;;;;;;4901979;29;20462;-73
2023/04/16 05:10:42;;;;;;;45.73;42.20;;;9.10;99.90;;;;;;4902035;29;20447;-72
2023/04/16 05:13:08;;;;;;;43.47;40.07;;;9.10;99.90;;;;;;4902650;29;20482;-72
2023/04/16 05:15:35;;;;;;;43.87;40.27;;;9.10;99.90;;;;;;4903038;29;20491;-73
2023/04/16 05:18:02;;;;;;;41.83;38.73;;;9.10;99.90;;;;;;4901619;29;20963;-72
2023/04/16 05:20:28;;;;;;;41.37;38.23;;;9.00;99.90;;;;;;4902781;29;20452;-72
2023/04/16 05:22:56;;;;;;;43.30;39.97;;;9.00;99.90;;;;;;4903409;29;20965;-72
2023/04/16 05:25:23;;;;;;;43.60;40.30;;;9.10;99.90;;;;;;4901672;29;20456;-72
2023/04/16 05:27:50;;;;;;;44.03;40.80;;;9.00;99.90;;;;;;4902164;29;21205;-72
2023/04/16 05:30:16;;;;;;;41.77;38.80;;;9.00;99.90;;;;;;4903373;29;20481;-72
2023/04/16 05:32:43;;;;;;;42.30;39.20;;;9.00;99.90;;;;;;4902032;29;20466;-72
2023/04/16 05:35:10;;;;;;;44.53;41.03;;;9.00;99.90;;;;;;4902557;29;20454;-72
2023/04/16 05:37:36;;;;;;;43.50;40.00;;;9.00;99.90;;;;;;4903025;29;20459;-72
2023/04/16 05:40:06;;;;;;;44.60;41.10;;;9.00;99.90;;;;;;4900506;29;20447;-72
2023/04/16 05:42:32;;;;;;;44.67;40.83;;;9.10;99.90;;;;;;4892507;29;20483;-72
2023/04/16 05:44:59;;;;;;;46.00;42.20;;;9.10;99.90;;;;;;4901243;29;20479;-73
2023/04/16 05:47:25;;;;;;;47.87;43.87;;;9.10;99.90;;;;;;4902843;29;20466;-72
2023/04/16 05:49:52;;;;;;;47.97;43.83;;;9.10;99.90;;;;;;4902433;29;20462;-73
2023/04/16 05:52:19;;;;;;;50.37;45.90;;;9.10;99.90;;;;;;4900977;29;21118;-74
2023/04/16 05:54:45;;;;;;;52.27;47.43;;;9.10;99.90;;;;;;4902839;29;20453;-71
2023/04/16 05:57:14;;;;;;;49.67;45.20;;;9.10;99.90;;;;;;4902631;29;20456;-72
2023/04/16 05:59:41;;;;;;;50.67;45.93;;;9.10;99.90;;;;;;4901264;29;20456;-72
2023/04/16 06:02:08;;;;;;;51.50;47.10;;;9.10;99.90;;;;;;4904326;29;20461;-72
2023/04/16 06:04:36;;;;;;;50.20;45.90;;;9.10;99.90;;;;;;4906455;29;20490;-72
2023/04/16 06:07:02;;;;;;;49.67;45.03;;;9.20;99.90;;;;;;4905020;29;20551;-72
2023/04/16 06:09:29;;;;;;;53.10;48.10;;;9.20;99.90;;;;;;4906089;29;20466;-72
2023/04/16 06:11:56;;;;;;;52.77;47.90;;;9.20;99.90;;;;;;4907063;29;20454;-72
2023/04/16 06:14:24;;;;;;;56.10;50.77;;;9.20;99.90;;;;;;4904665;29;20489;-72
2023/04/16 06:16:51;;;;;;;55.87;50.63;;;9.20;99.90;;;;;;4905341;29;20452;-72
2023/04/16 06:19:18;;;;;;;55.20;49.93;;;9.10;99.90;;;;;;4906492;29;20462;-71
2023/04/16 06:21:44;;;;;;;55.07;49.77;;;9.10;99.90;;;;;;4905303;29;20447;-71
2023/04/16 06:24:12;;;;;;;55.63;50.53;;;9.10;99.90;;;;;;4908853;29;20489;-72
2023/04/16 06:26:38;;;;;;;55.40;50.20;;;9.10;99.90;;;;;;4915908;29;20451;-71
2023/04/16 06:29:05;;;;;;;53.37;48.27;;;9.10;99.90;;;;;;4915723;29;20455;-72
2023/04/16 06:31:33;;;;;;;52.90;47.53;;;9.10;99.90;;;;;;4915902;29;20456;-72
2023/04/16 06:34:00;;;;;;;54.40;48.80;;;9.20;99.90;;;;;;4916108;29;20454;-73
2023/04/16 06:36:56;;;;;;;52.63;47.83;;;9.10;99.90;;;;;;4915819;29;20872;-74
2023/04/16 06:39:24;;;;;;;55.80;50.07;;;9.20;99.90;;;;;;4882745;29;20887;-75
2023/04/16 06:41:51;;;;;;;55.60;50.40;;;9.20;99.90;;;;;;4915154;29;20772;-75
2023/04/16 06:44:18;;;;;;;57.00;51.50;;;9.20;99.90;;;;;;4915374;29;20938;-75
2023/04/16 06:46:46;;;;;;;56.97;51.47;;;9.20;99.90;;;;;;4915620;29;20454;-75
2023/04/16 06:49:12;;;;;;;55.23;50.07;;;9.30;99.90;;;;;;4915621;29;20458;-77
2023/04/16 06:51:39;;;;;;;53.30;47.97;;;9.30;99.90;;;;;;4915670;29;20456;-77
2023/04/16 06:54:06;;;;;;;53.43;48.07;;;9.30;99.90;;;;;;4915621;29;20525;-77
2023/04/16 06:56:33;;;;;;;55.37;50.03;;;9.30;99.90;;;;;;4904351;29;20468;-76
2023/04/16 06:58:59;;;;;;;55.17;49.87;;;9.30;99.90;;;;;;4904775;29;20530;-76
2023/04/16 07:01:26;;;;;;;57.43;52.10;;;9.30;99.90;;;;;;4906843;29;20534;-75
2023/04/16 07:03:54;;;;;;;57.57;52.43;;;9.30;99.90;;;;;;4904512;29;20989;-75
2023/04/16 07:06:21;;;;;;;58.17;52.40;;;9.30;99.90;;;;;;4910552;29;20466;-75
2023/04/16 07:08:48;;;;;;;56.53;51.30;;;9.30;99.90;;;;;;4915382;29;20453;-76
2023/04/16 07:11:15;;;;;;;56.80;51.40;;;9.50;99.90;;;;;;4915267;29;20451;-76
2023/04/16 07:13:41;;;;;;;56.47;51.17;;;9.50;99.90;;;;;;4895716;29;20481;-75
2023/04/16 07:16:08;;;;;;;57.60;52.10;;;9.40;99.90;;;;;;4896201;29;20498;-76
2023/04/16 07:18:35;;;;;;;55.50;49.93;;;9.40;99.90;;;;;;4896593;29;20596;-77
2023/04/16 07:21:03;;;;;;;55.13;49.90;;;9.40;99.90;;;;;;4896364;29;20867;-76
2023/04/16 07:23:30;;;;;;;54.33;49.30;;;9.40;99.90;;;;;;4896633;29;20459;-77
2023/04/16 07:25:57;;;;;;;56.30;51.10;;;9.50;99.90;;;;;;4896342;29;21100;-78
2023/04/16 07:28:24;;;;;;;55.60;50.63;;;9.50;99.90;;;;;;4902635;29;20459;-79
2023/04/16 07:30:51;;;;;;;55.93;51.27;;;9.50;99.90;;;;;;4935634;29;20478;-77
2023/04/16 07:33:18;;;;;;;56.70;51.57;;;9.60;99.90;;;;;;4931077;29;20458;-78
2023/04/16 07:35:45;;;;;;;54.83;49.60;;;9.70;99.90;;;;;;4930516;29;20450;-77
2023/04/16 07:38:13;;;;;;;56.53;51.60;;;9.70;99.90;;;;;;4926622;29;20510;-79
2023/04/16 07:40:40;;;;;;;56.70;51.50;;;9.70;99.90;;;;;;4918983;29;20450;-79
2023/04/16 07:43:07;;;;;;;56.20;51.13;;;9.70;99.90;;;;;;4912216;29;20470;-79
2023/04/16 07:45:33;;;;;;;57.13;52.00;;;9.70;99.90;;;;;;4903170;29;20491;-79
2023/04/16 07:48:00;;;;;;;55.60;50.50;;;9.60;99.90;;;;;;4906026;29;20458;-79
2023/04/16 07:50:27;;;;;;;54.63;49.60;;;9.60;99.90;;;;;;4915214;29;21019;-81
2023/04/16 07:52:54;;;;;;;54.17;49.20;;;9.50;99.90;;;;;;4933354;29;20481;-78
2023/04/16 07:55:22;;;;;;;55.43;50.47;;;9.60;99.90;;;;;;4934038;29;21022;-79
2023/04/16 07:57:49;;;;;;;51.50;47.13;;;9.60;99.90;;;;;;4933609;29;20498;-78
2023/04/16 08:00:16;;;;;;;51.50;47.03;;;9.60;99.90;;;;;;4933700;29;20457;-79
2023/04/16 08:02:44;;;;;;;51.20;46.83;;;9.60;99.90;;;;;;4931996;29;20818;-79
2023/04/16 08:05:11;;;;;;;55.07;50.27;;;9.70;99.90;;;;;;4914998;29;20490;-79
2023/04/16 08:07:38;;;;;;;53.73;48.70;;;9.60;99.90;;;;;;4914815;29;20831;-80
2023/04/16 08:10:06;;;;;;;49.77;45.50;;;9.70;99.90;;;;;;4914517;29;20884;-81
2023/04/16 08:12:34;;;;;;;51.00;46.63;;;9.60;99.90;;;;;;4914887;29;20577;-80
2023/04/16 08:15:01;;;;;;;50.83;46.50;;;9.60;99.90;;;;;;4914275;29;20501;-79
2023/04/16 08:17:28;;;;;;;50.57;46.07;;;9.60;99.90;;;;;;4914818;29;20464;-79
2023/04/16 08:19:55;;;;;;;52.00;47.50;;;9.50;99.90;;;;;;4915230;29;20464;-79
2023/04/16 08:22:22;;;;;;;50.70;46.20;;;9.60;99.90;;;;;;4916340;29;20454;-80
2023/04/16 08:24:49;;;;;;;53.30;48.87;;;9.40;99.90;;;;;;4915414;29;20505;-78
2023/04/16 08:27:16;;;;;;;52.57;47.90;;;9.40;99.90;;;;;;4915373;29;20457;-76
2023/04/16 08:29:44;;;;;;;50.37;46.07;;;9.50;99.90;;;;;;4917769;29;20563;-76
2023/04/16 08:32:11;;;;;;;50.57;46.27;;;9.60;99.90;;;;;;4916102;29;20466;-75
2023/04/16 08:34:38;;;;;;;52.30;48.10;;;9.50;99.90;;;;;;4916194;29;20473;-75
2023/04/16 08:37:04;;;;;;;52.17;47.20;;;9.60;99.90;;;;;;4913903;29;20462;-75
2023/04/16 08:39:31;;;;;;;51.03;46.73;;;9.70;99.90;;;;;;4914200;29;20458;-75
2023/04/16 08:41:59;;;;;;;50.73;46.53;;;9.70;99.90;;;;;;4914308;29;20454;-75
2023/04/16 08:44:27;;;;;;;50.20;45.97;;;9.70;99.90;;;;;;4913880;29;20495;-75
2023/04/16 08:46:57;;;;;;;50.40;45.63;;;9.70;99.90;;;;;;4913853;29;20458;-74
2023/04/16 08:49:25;;;;;;;48.83;44.77;;;9.70;99.90;;;;;;4913704;29;20459;-75
2023/04/16 08:51:53;;;;;;;48.03;44.00;;;9.80;99.90;;;;;;4913682;29;20458;-75
2023/04/16 08:54:34;;;;;;;49.47;45.30;;;9.80;99.90;;;;;;4913714;29;20650;-75
2023/04/16 08:57:05;;;;;;;49.07;45.07;;;9.80;99.90;;;;;;4913616;29;20458;-75
2023/04/16 08:59:32;;;;;;;49.87;45.47;;;10.00;99.90;;;;;;4909630;29;20459;-75
2023/04/16 09:02:01;;;;;;;49.83;45.77;;;10.10;99.90;;;;;;4901671;29;20462;-75
2023/04/16 09:04:29;;;;;;;51.80;47.47;;;10.00;99.90;;;;;;4904033;29;20983;-75
2023/04/16 09:06:57;;;;;;;49.97;45.87;;;10.10;99.90;;;;;;4903685;29;20454;-75
2023/04/16 09:09:25;;;;;;;48.07;44.30;;;10.00;99.90;;;;;;4901867;29;20954;-75
2023/04/16 09:11:53;;;;;;;48.23;44.40;;;9.90;99.90;;;;;;4901414;29;20454;-76
2023/04/16 09:14:20;;;;;;;50.40;46.20;;;10.00;99.90;;;;;;4903141;29;20577;-75
2023/04/16 09:16:49;;;;;;;51.63;47.43;;;10.20;99.90;;;;;;4902326;29;20452;-75
2023/04/16 09:19:17;;;;;;;49.17;45.17;;;10.00;99.90;;;;;;4901087;29;20466;-75
2023/04/16 09:21:47;;;;;;;50.70;46.80;;;9.90;99.90;;;;;;4903150;29;20818;-76
2023/04/16 09:24:14;;;;;;;50.43;46.80;;;10.00;99.90;;;;;;4903359;29;20817;-75
2023/04/16 09:26:42;;;;;;;48.87;45.20;;;10.00;99.90;;;;;;4901890;29;20862;-76
2023/04/16 09:29:09;;;;;;;52.20;47.47;;;10.00;99.90;;;;;;4901919;29;20482;-76
2023/04/16 09:31:36;;;;;;;49.90;45.90;;;10.10;99.90;;;;;;4903220;29;20445;-74
2023/04/16 09:34:04;;;;;;;48.17;43.97;;;10.20;99.90;;;;;;4901539;29;20460;-74
2023/04/16 09:36:32;;;;;;;49.70;45.60;;;10.30;99.90;;;;;;4901231;29;20434;-75
2023/04/16 09:38:59;;;;;;;46.90;43.17;;;10.20;99.90;;;;;;4903219;29;20818;-75
2023/04/16 09:41:28;;;;;;;47.90;43.90;;;10.30;99.90;;;;;;4902416;29;20455;-75
2023/04/16 09:43:56;;;;;;;48.30;44.30;;;10.40;99.90;;;;;;4901098;29;20463;-75
2023/04/16 09:46:24;;;;;;;48.20;44.40;;;10.40;99.90;;;;;;4902399;29;21101;-76
2023/04/16 09:48:50;;;;;;;50.77;47.10;;;10.40;99.90;;;;;;4902603;29;20451;-75
2023/04/16 09:51:17;;;;;;;48.53;44.83;;;10.30;99.90;;;;;;4900906;29;20462;-75
2023/04/16 09:53:45;;;;;;;51.30;47.40;;;10.20;99.90;;;;;;4903128;29;20449;-76
2023/04/16 09:56:12;;;;;;;47.57;43.57;;;10.10;99.90;;;;;;4902261;29;20455;-76
2023/04/16 09:58:40;;;;;;;48.73;44.47;;;10.10;99.90;;;;;;4901210;29;20447;-77
2023/04/16 10:01:08;;;;;;;48.83;44.87;;;10.10;99.90;;;;;;4901244;29;20864;-75
2023/04/16 10:03:36;;;;;;;47.37;43.73;;;10.00;99.90;;;;;;4901454;29;20457;-75
2023/04/16 10:06:09;;;;;;;50.77;46.37;;;9.90;99.90;;;;;;4900859;29;20487;-75
2023/04/16 10:08:36;;;;;;;47.97;43.87;;;10.10;99.90;;;;;;4901128;29;20501;-76
2023/04/16 10:11:05;;;;;;;48.37;44.50;;;10.00;99.90;;;;;;4902774;29;20450;-76
2023/04/16 10:13:32;;;;;;;48.57;44.27;;;10.10;99.90;;;;;;4901466;29;20969;-75
2023/04/16 10:15:59;;;;;;;48.20;44.20;;;10.10;99.90;;;;;;4901496;29;20474;-75
2023/04/16 10:18:27;;;;;;;47.23;43.33;;;10.10;99.90;;;;;;4898851;29;20542;-76
2023/04/16 10:20:54;;;;;;;49.17;45.60;;;10.10;99.90;;;;;;4893985;29;20447;-76
2023/04/16 10:23:22;;;;;;;48.23;44.23;;;9.90;99.90;;;;;;4893734;29;20491;-75
2023/04/16 10:25:49;;;;;;;48.97;44.87;;;10.10;99.90;;;;;;4893556;29;20589;-75
2023/04/16 10:28:18;;;;;;;46.37;42.40;;;10.00;99.90;;;;;;4893482;29;20474;-75
2023/04/16 10:30:51;;;;;;;46.70;42.90;;;10.00;99.90;;;;;;4893605;29;20972;-75
2023/04/16 10:33:20;;;;;;;46.97;43.07;;;10.00;99.90;;;;;;4893753;29;20470;-75
2023/04/16 10:35:47;;;;;;;47.27;43.57;;;10.10;99.90;;;;;;4896040;29;20520;-75
2023/04/16 10:38:21;;;;;;;50.07;45.70;;;10.20;99.90;;;;;;4895323;29;20811;-74
2023/04/16 10:40:48;;;;;;;47.60;43.60;;;10.30;99.90;;;;;;4894184;29;20478;-74
2023/04/16 10:43:18;;;;;;;46.90;43.00;;;10.40;99.90;;;;;;4893984;29;20822;-75
2023/04/16 10:45:47;;;;;;;48.03;44.40;;;10.40;99.90;;;;;;4893618;29;21025;-75
2023/04/16 10:48:15;;;;;;;48.87;44.93;;;10.60;99.90;;;;;;4894210;29;20466;-76
2023/04/16 10:50:42;;;;;;;46.87;43.27;;;10.60;99.90;;;;;;4897224;29;20469;-76
2023/04/16 10:53:20;;;;;;;46.43;43.03;;;10.50;99.90;;;;;;4897186;29;20459;-75
2023/04/16 10:56:14;;;;;;;46.87;43.13;;;10.50;99.90;;;;;;4896933;29;20539;-75
2023/04/16 10:58:42;;;;;;;46.00;42.60;;;10.50;99.90;;;;;;4863262;29;20523;-75
2023/04/16 11:01:13;;;;;;;46.20;42.40;;;10.60;99.90;;;;;;4896715;29;20478;-75
2023/04/16 11:03:43;;;;;;;46.50;43.00;;;10.60;99.90;;;;;;4906770;29;20454;-76
2023/04/16 11:06:12;;;;;;;46.43;43.03;;;10.50;99.90;;;;;;4915562;29;20484;-76
2023/04/16 11:08:39;;;;;;;46.97;43.37;;;10.50;99.90;;;;;;4915513;29;20458;-76
2023/04/16 11:11:06;;;;;;;49.80;46.10;;;10.60;99.90;;;;;;4915426;29;20778;-76
2023/04/16 11:13:34;;;;;;;44.00;40.57;;;10.70;99.90;;;;;;4915314;29;20489;-75
2023/04/16 11:16:03;;;;;;;45.13;41.73;;;10.60;99.90;;;;;;4915111;29;20856;-75
2023/04/16 11:18:29;;;;;;;45.07;42.03;;;10.40;99.90;;;;;;4915521;29;20473;-75
2023/04/16 11:20:56;;;;;;;46.47;42.87;;;10.40;99.90;;;;;;4915499;29;20454;-75
2023/04/16 11:23:23;;;;;;;43.77;40.37;;;10.50;99.90;;;;;;4915217;29;20458;-75
2023/04/16 11:25:54;;;;;;;44.90;41.70;;;10.50;99.90;;;;;;4915049;29;20501;-75
2023/04/16 11:28:21;;;;;;;43.80;40.63;;;10.40;99.90;;;;;;4915179;29;21044;-75
2023/04/16 11:30:48;;;;;;;44.57;41.40;;;10.50;99.90;;;;;;4914955;29;20461;-75
2023/04/16 11:33:16;;;;;;;42.67;39.47;;;10.50;99.90;;;;;;4915043;29;20465;-76
2023/04/16 11:35:44;;;;;;;40.87;37.97;;;10.60;99.90;;;;;;4915322;29;20461;-75
2023/04/16 11:38:11;;;;;;;41.07;38.40;;;10.40;99.90;;;;;;4914775;29;20864;-75
2023/04/16 11:40:38;;;;;;;42.17;39.23;;;10.40;99.90;;;;;;4914948;29;20459;-75
2023/04/16 11:43:14;;;;;;;39.13;36.33;;;10.30;99.90;;;;;;4914457;29;20454;-76
2023/04/16 11:45:53;;;;;;;40.90;38.13;;;10.30;99.90;;;;;;4915140;29;20970;-75
2023/04/16 11:48:21;;;;;;;39.83;36.93;;;10.20;99.90;;;;;;4914821;29;21109;-75
2023/04/16 11:50:55;;;;;;;41.07;38.27;;;10.30;99.90;;;;;;4914845;29;20458;-75
2023/04/16 11:53:22;;;;;;;40.13;37.23;;;10.20;99.90;;;;;;4914241;29;20824;-75
2023/04/16 11:55:49;;;;;;;38.23;35.67;;;10.30;99.90;;;;;;4914592;29;20442;-75
2023/04/16 11:58:16;;;;;;;38.23;35.67;;;10.30;99.90;;;;;;4914249;29;20498;-75
2023/04/16 12:00:43;;;;;;;38.50;36.00;;;10.30;99.90;;;;;;4914499;29;20506;-75
2023/04/16 12:03:10;;;;;;;39.57;37.07;;;10.50;99.90;;;;;;4908418;29;20452;-74
2023/04/16 12:05:40;;;;;;;39.90;37.30;;;10.40;99.90;;;;;;4895368;29;20506;-75
2023/04/16 12:08:08;;;;;;;41.93;38.73;;;10.40;99.90;;;;;;4894960;29;20535;-74
2023/04/16 12:10:36;;;;;;;39.30;36.80;;;10.40;99.90;;;;;;4894651;29;20452;-74
2023/04/16 12:13:11;;;;;;;39.20;36.70;;;10.40;99.90;;;;;;4894940;29;20483;-76
2023/04/16 12:15:45;;;;;;;37.47;35.17;;;10.30;99.90;;;;;;4895270;29;20506;-73
2023/04/16 12:18:12;;;;;;;37.37;34.67;;;10.30;99.90;;;;;;4895603;29;20490;-74
2023/04/16 12:20:41;;;;;;;36.10;34.00;;;10.30;99.90;;;;;;4895170;29;20459;-74
2023/04/16 12:23:08;;;;;;;34.90;32.90;;;10.20;99.90;;;;;;4894883;29;20884;-75
2023/04/16 12:25:35;;;;;;;36.37;34.10;;;10.30;99.90;;;;;;4894783;29;20504;-75
2023/04/16 12:28:02;;;;;;;35.83;33.53;;;10.40;99.90;;;;;;4894878;29;20451;-74
2023/04/16 12:30:30;;;;;;;38.17;35.93;;;10.40;99.90;;;;;;4895262;29;20460;-74
2023/04/16 12:33:14;;;;;;;35.40;33.40;;;10.30;99.90;;;;;;4895114;29;20884;-74
2023/04/16 12:35:43;;;;;;;36.40;34.23;;;10.40;99.90;;;;;;4895188;29;20942;-75
2023/04/16 12:38:10;;;;;;;37.77;35.47;;;10.40;99.90;;;;;;4895151;29;20479;-75
2023/04/16 12:40:37;;;;;;;34.27;32.17;;;10.50;99.90;;;;;;4894981;29;20465;-75
2023/04/16 12:43:04;;;;;;;37.17;34.87;;;10.50;99.90;;;;;;4894653;29;20460;-74
2023/04/16 12:45:31;;;;;;;36.20;34.10;;;10.40;99.90;;;;;;4894888;29;20455;-75
2023/04/16 12:47:57;;;;;;;36.60;34.50;;;10.50;99.90;;;;;;4895189;29;20462;-74
2023/04/16 12:50:24;;;;;;;36.50;34.50;;;10.50;99.90;;;;;;4894837;29;20455;-75
2023/04/16 12:52:52;;;;;;;38.17;35.87;;;10.70;99.90;;;;;;4894846;29;20455;-75
2023/04/16 12:55:19;;;;;;;36.97;34.97;;;10.60;99.90;;;;;;4894502;29;20969;-75
2023/04/16 12:57:47;;;;;;;38.13;36.00;;;10.70;99.90;;;;;;4894459;29;20957;-75
2023/04/16 13:00:16;;;;;;;39.60;37.17;;;10.70;99.90;;;;;;4895103;29;20462;-75
2023/04/16 13:02:42;;;;;;;37.43;35.33;;;10.60;99.90;;;;;;4897023;29;20801;-75
2023/04/16 13:05:09;;;;;;;38.20;36.10;;;10.70;99.90;;;;;;4913222;29;20941;-75
2023/04/16 13:07:36;;;;;;;38.57;36.47;;;10.70;99.90;;;;;;4913039;29;21012;-75
2023/04/16 13:10:06;;;;;;;36.63;34.63;;;10.70;99.90;;;;;;4913179;29;20940;-75
2023/04/16 13:12:32;;;;;;;38.67;36.47;;;10.60;99.90;;;;;;4912475;29;20474;-75
2023/04/16 13:14:59;;;;;;;37.77;35.57;;;10.60;99.90;;;;;;4912993;29;20493;-76
2023/04/16 13:17:26;;;;;;;36.73;34.53;;;10.50;99.90;;;;;;4913367;29;20454;-76
2023/04/16 13:19:52;;;;;;;36.57;34.40;;;10.50;99.90;;;;;;4913050;29;20453;-75
2023/04/16 13:22:19;;;;;;;36.23;34.03;;;10.40;99.90;;;;;;4912973;29;20469;-75
2023/04/16 13:24:46;;;;;;;37.60;35.30;;;10.40;99.90;;;;;;4913333;29;20465;-75
2023/04/16 13:27:15;;;;;;;37.30;35.13;;;10.50;99.90;;;;;;4913101;29;20890;-75
2023/04/16 13:29:42;;;;;;;37.37;35.07;;;10.50;99.90;;;;;;4913359;29;20466;-76
2023/04/16 13:32:09;;;;;;;37.43;34.93;;;10.50;99.90;;;;;;4913114;29;20454;-76
2023/04/16 13:34:36;;;;;;;36.60;34.30;;;10.40;99.90;;;;;;4913132;29;20659;-76
2023/04/16 13:37:02;;;;;;;37.13;34.73;;;10.40;99.90;;;;;;4913115;29;20454;-77
2023/04/16 13:39:29;;;;;;;36.50;34.30;;;10.30;99.90;;;;;;4913099;29;20467;-77
2023/04/16 13:41:56;;;;;;;37.53;35.23;;;10.40;99.90;;;;;;4912873;29;20454;-77
2023/04/16 13:44:24;;;;;;;38.13;35.70;;;10.50;99.90;;;;;;4912843;29;21132;-77
2023/04/16 13:46:50;;;;;;;38.50;36.10;;;10.60;99.90;;;;;;4912567;29;20582;-77
2023/04/16 13:49:17;;;;;;;41.50;39.10;;;10.60;99.90;;;;;;4912985;29;20454;-77
2023/04/16 13:51:44;;;;;;;39.90;37.40;;;10.60;99.90;;;;;;4913149;29;20876;-78
2023/04/16 13:54:11;;;;;;;39.67;37.40;;;10.50;99.90;;;;;;4913001;29;20462;-78
2023/04/16 13:56:37;;;;;;;40.60;38.13;;;10.50;99.90;;;;;;4919534;29;20442;-78
2023/04/16 13:59:04;;;;;;;41.33;38.77;;;10.40;99.90;;;;;;4932384;29;20485;-78
2023/04/16 14:01:32;;;;;;;40.10;37.70;;;10.40;99.90;;;;;;4929645;29;20470;-76
2023/04/16 14:04:04;;;;;;;41.63;39.00;;;10.30;99.90;;;;;;4913854;29;20451;-76
2023/04/16 14:06:31;;;;;;;40.33;38.03;;;10.40;99.90;;;;;;4910337;29;20483;-78
2023/04/16 14:08:58;;;;;;;41.13;38.30;;;10.40;99.90;;;;;;4897227;29;20468;-79
2023/04/16 14:11:25;;;;;;;41.87;39.17;;;10.40;99.90;;;;;;4894701;29;20452;-79
2023/04/16 14:13:52;;;;;;;38.40;36.20;;;10.50;99.90;;;;;;4893611;29;20482;-78
2023/04/16 14:16:19;;;;;;;40.80;38.20;;;10.50;99.90;;;;;;4903215;29;20486;-79
2023/04/16 14:18:47;;;;;;;39.70;37.20;;;10.50;99.90;;;;;;4902965;29;20897;-78
2023/04/16 14:21:14;;;;;;;40.63;38.10;;;10.50;99.90;;;;;;4908794;29;20450;-79
2023/04/16 14:23:41;;;;;;;40.40;38.10;;;10.60;99.90;;;;;;4897589;29;20476;-79
2023/04/16 14:26:07;;;;;;;40.47;38.10;;;10.60;99.90;;;;;;4900621;29;20486;-79
2023/04/16 14:28:35;;;;;;;40.43;37.93;;;10.70;99.90;;;;;;4915961;29;20454;-80
2023/04/16 14:31:01;;;;;;;39.67;37.47;;;10.50;99.90;;;;;;4917865;29;20485;-80
2023/04/16 14:33:28;;;;;;;39.00;36.80;;;10.60;99.90;;;;;;4915895;29;20952;-82
2023/04/16 14:35:56;;;;;;;39.80;37.30;;;10.50;99.90;;;;;;4902674;29;20459;-82
2023/04/16 14:38:23;;;;;;;36.10;33.90;;;10.50;99.90;;;;;;4896999;29;20501;-82
2023/04/16 14:40:50;;;;;;;37.37;34.97;;;10.50;99.90;;;;;;4897401;29;20458;-82
2023/04/16 14:43:16;;;;;;;39.63;37.03;;;10.60;99.90;;;;;;4897152;29;21016;-82
2023/04/16 14:45:43;;;;;;;38.17;35.97;;;10.60;99.90;;;;;;4897195;29;20447;-81
2023/04/16 14:48:10;;;;;;;39.87;37.37;;;10.60;99.90;;;;;;4897087;29;20490;-80